createdAt,value
2022-10-23T08:22:45.181Z,5.10
2022-10-23T08:25:17.743Z,4.47
2022-10-23T08:27:47.195Z,5.85
2022-10-23T08:30:15.488Z,5.45
2022-10-23T08:32:43.873Z,4.88
2022-10-23T08:35:13.787Z,5.22
2022-10-23T08:37:41.306Z,5.33
2022-10-23T08:40:18.088Z,4.80
2022-10-23T08:43:10.209Z,5.20
2022-10-23T08:45:48.438Z,5.18
2022-10-23T08:48:45.606Z,5.05
2022-10-23T08:51:41.119Z,5.55
2022-10-23T08:54:14.357Z,5.77
2022-10-23T08:56:44.345Z,5.60
2022-10-23T08:59:34.276Z,5.78
2022-10-23T09:02:04.113Z,5.70
2022-10-23T09:04:32.305Z,5.82
2022-10-23T09:07:03.785Z,5.28
2022-10-23T09:09:43.117Z,5.38
2022-10-23T09:12:12.854Z,5.47
2022-10-23T09:15:02.521Z,5.53
2022-10-23T09:17:32.173Z,5.55
2022-10-23T09:20:25.098Z,5.40
2022-10-23T09:22:59.738Z,5.00
2022-10-23T09:25:31.261Z,5.05
2022-10-23T09:28:01.523Z,5.80
2022-10-23T09:30:32.672Z,5.43
2022-10-23T09:33:12.403Z,4.75
2022-10-23T09:35:55.608Z,4.97
2022-10-23T09:38:46.266Z,5.10
2022-10-23T09:41:19.915Z,5.00
2022-10-23T09:43:47.681Z,5.20
2022-10-23T09:46:20.143Z,4.90
2022-10-23T09:48:59.881Z,4.50
2022-10-23T09:51:29.598Z,4.93
2022-10-23T09:53:59.073Z,4.38
2022-10-23T09:56:40.241Z,4.50
2022-10-23T09:59:10.798Z,4.90
2022-10-23T10:01:47.530Z,4.63
2022-10-23T10:04:42.286Z,4.93
2022-10-23T10:07:24.538Z,4.97
2022-10-23T10:09:56.922Z,5.18
2022-10-23T10:12:37.483Z,5.47
2022-10-23T10:15:14.906Z,5.93
2022-10-23T10:18:06.602Z,5.13
2022-10-23T10:20:42.634Z,5.60
2022-10-23T10:23:33.074Z,5.70
2022-10-23T10:26:23.098Z,6.35
2022-10-23T10:29:15.749Z,6.10
2022-10-23T10:32:05.918Z,6.00
2022-10-23T10:34:47.411Z,6.15
2022-10-23T10:37:53.592Z,6.65
2022-10-23T10:40:33.409Z,6.13
2022-10-23T10:43:28.442Z,5.38
2022-10-23T10:46:22.824Z,5.57
2022-10-23T10:49:00.858Z,5.63
2022-10-23T10:51:38.614Z,5.53
2022-10-23T10:54:21.825Z,5.25
2022-10-23T10:56:49.451Z,5.68
2022-10-23T10:59:28.860Z,5.30
2022-10-23T11:02:15.683Z,5.35
2022-10-23T11:04:52.842Z,5.45
2022-10-23T11:07:25.329Z,5.80
2022-10-23T11:09:53.364Z,5.65
2022-10-23T11:12:24.989Z,5.97
2022-10-23T11:14:52.860Z,5.35
2022-10-23T11:17:25.062Z,5.55
2022-10-23T11:20:15.860Z,5.30
2022-10-23T11:22:47.741Z,5.50
2022-10-23T11:25:49.314Z,5.88
2022-10-23T11:28:43.112Z,6.07
2022-10-23T11:31:34.898Z,5.18
2022-10-23T11:34:21.097Z,5.85
2022-10-23T11:36:58.426Z,6.25
2022-10-23T11:39:29.449Z,5.80
2022-10-23T11:42:31.655Z,5.85
2022-10-23T11:44:59.002Z,5.25
2022-10-23T11:47:40.563Z,6.13
2022-10-23T11:50:08.028Z,5.57
2022-10-23T11:53:12.551Z,5.72
2022-10-23T11:56:16.217Z,5.25
2022-10-23T11:58:46.879Z,5.68
2022-10-23T12:01:26.513Z,5.75
2022-10-23T12:04:12.701Z,5.75
2022-10-23T12:07:23.820Z,5.85
2022-10-23T12:09:57.812Z,5.63
2022-10-23T12:12:34.246Z,5.93
2022-10-23T12:15:18.804Z,5.43
2022-10-23T12:17:48.262Z,5.72
2022-10-23T12:20:25.753Z,5.97
2022-10-23T12:23:20.905Z,5.63
2022-10-23T12:26:18.860Z,5.80
2022-10-23T12:28:49.138Z,5.70
2022-10-23T12:31:25.160Z,6.28
2022-10-23T12:34:33.230Z,5.90
2022-10-23T12:37:38.519Z,5.88
2022-10-23T12:40:09.035Z,6.25
2022-10-23T12:42:37.679Z,5.82
2022-10-23T12:45:24.911Z,5.72
2022-10-23T12:47:52.719Z,6.00
2022-10-23T12:50:29.262Z,5.70
2022-10-23T12:53:00.982Z,5.97
2022-10-23T12:55:49.535Z,5.60
2022-10-23T12:58:26.154Z,6.00
2022-10-23T13:00:59.365Z,6.13
2022-10-23T13:03:28.984Z,6.03
2022-10-23T13:05:58.785Z,6.18
2022-10-23T13:08:33.614Z,6.15
2022-10-23T13:11:20.717Z,6.20
2022-10-23T13:13:50.501Z,5.60
2022-10-23T13:16:21.190Z,6.47
2022-10-23T13:18:49.226Z,5.72
2022-10-23T13:21:21.940Z,5.93
2022-10-23T13:23:50.476Z,5.78
2022-10-23T13:26:35.879Z,6.32
2022-10-23T13:29:08.700Z,5.70
2022-10-23T13:31:36.981Z,5.85
2022-10-23T13:34:14.865Z,5.53
2022-10-23T13:36:53.568Z,6.13
2022-10-23T13:39:33.635Z,5.72
2022-10-23T13:42:12.657Z,5.82
2022-10-23T13:44:41.117Z,5.78
2022-10-23T13:47:17.862Z,5.63
2022-10-23T13:49:45.262Z,6.13
2022-10-23T13:52:15.306Z,6.03
2022-10-23T13:54:43.690Z,6.68
2022-10-23T13:57:15.558Z,6.30
2022-10-23T13:59:45.298Z,6.93
2022-10-23T14:02:19.389Z,6.00
2022-10-23T14:04:48.633Z,6.60
2022-10-23T14:07:15.983Z,6.15
2022-10-23T14:09:43.860Z,6.63
2022-10-23T14:12:12.359Z,6.43
2022-10-23T14:14:39.613Z,5.45
2022-10-23T14:17:06.941Z,6.53
2022-10-23T14:19:34.695Z,6.05
2022-10-23T14:22:01.985Z,6.15
2022-10-23T14:24:29.299Z,6.43
2022-10-23T14:26:57.600Z,5.93
2022-10-23T14:29:25.215Z,6.10
2022-10-23T14:31:52.754Z,6.85
2022-10-23T14:34:20.457Z,6.32
2022-10-23T14:37:03.878Z,6.38
2022-10-23T14:39:35.183Z,6.28
2022-10-23T14:42:02.438Z,6.18
2022-10-23T14:44:29.810Z,6.80
2022-10-23T14:46:57.167Z,6.20
2022-10-23T14:49:24.555Z,6.45
2022-10-23T14:51:51.957Z,6.63
2022-10-23T14:54:19.343Z,6.55
2022-10-23T14:56:46.711Z,6.00
2022-10-23T14:59:15.103Z,6.45
2022-10-23T15:01:47.219Z,7.13
2022-10-23T15:04:16.829Z,6.65
2022-10-23T15:06:46.275Z,7.30
2022-10-23T15:09:14.567Z,6.93
2022-10-23T15:11:42.385Z,6.25
2022-10-23T15:14:09.855Z,7.22
2022-10-23T15:16:43.167Z,6.45
2022-10-23T15:19:15.212Z,6.50
2022-10-23T15:21:46.962Z,7.17
2022-10-23T15:24:15.847Z,6.55
2022-10-23T15:26:44.672Z,6.22
2022-10-23T15:29:12.659Z,5.90
2022-10-23T15:31:42.292Z,6.65
2022-10-23T15:34:16.543Z,5.97
2022-10-23T15:36:46.732Z,6.53
2022-10-23T15:39:17.105Z,7.03
2022-10-23T15:41:44.995Z,6.22
2022-10-23T15:44:16.346Z,6.00
2022-10-23T15:46:44.078Z,6.03
2022-10-23T15:49:14.030Z,6.80
2022-10-23T15:51:41.791Z,7.00
2022-10-23T15:54:16.404Z,6.68
2022-10-23T15:56:52.033Z,6.65
2022-10-23T15:59:22.157Z,6.85
2022-10-23T16:01:50.952Z,6.38
2022-10-23T16:14:14.113Z,7.03
2022-10-23T16:16:42.055Z,6.75
2022-10-23T16:19:13.239Z,7.10
2022-10-23T16:21:41.683Z,6.93
2022-10-23T16:24:10.250Z,7.45
2022-10-23T16:26:38.454Z,9.27
2022-10-23T16:29:08.263Z,9.80
2022-10-23T16:31:37.202Z,9.70
2022-10-23T16:34:06.083Z,10.57
2022-10-23T16:36:34.386Z,10.82
2022-10-23T16:39:24.903Z,10.15
2022-10-23T16:42:10.690Z,9.43
2022-10-23T16:45:04.483Z,9.98
2022-10-23T16:47:32.095Z,9.40
2022-10-23T16:49:59.967Z,10.18
2022-10-23T16:52:28.299Z,9.70
2022-10-23T16:54:55.926Z,9.90
2022-10-23T16:57:24.085Z,10.40
2022-10-23T16:59:51.403Z,13.00
2022-10-23T17:02:20.321Z,16.35
2022-10-23T17:04:50.014Z,28.50
2022-10-23T17:24:47.525Z,24.05
2022-10-23T17:27:17.865Z,18.70
2022-10-23T17:34:41.185Z,13.13
2022-10-23T17:37:10.117Z,13.45
2022-10-23T17:39:37.368Z,13.48
2022-10-23T17:42:04.620Z,15.63
2022-10-23T17:44:32.593Z,15.43
2022-10-23T17:46:59.867Z,14.70
2022-10-23T17:49:27.196Z,13.25
2022-10-23T17:51:57.066Z,15.35
2022-10-23T17:54:26.444Z,13.43
2022-10-23T17:56:54.223Z,11.32
2022-10-23T17:59:21.456Z,11.93
2022-10-23T18:01:49.449Z,13.02
2022-10-23T18:04:19.132Z,12.90
2022-10-23T18:14:17.757Z,12.25
2022-10-23T18:16:45.894Z,11.73
2022-10-23T18:19:15.252Z,12.55
2022-10-23T18:21:47.744Z,11.70
2022-10-23T18:24:15.263Z,11.88
2022-10-23T18:26:42.637Z,10.57
2022-10-23T18:29:11.379Z,10.40
2022-10-23T18:31:39.556Z,10.95
2022-10-23T18:34:24.719Z,10.18
2022-10-23T18:36:53.675Z,9.70
2022-10-23T18:39:23.646Z,9.73
2022-10-23T18:41:54.009Z,10.25
2022-10-23T18:44:22.876Z,10.13
2022-10-23T19:39:18.300Z,9.65
2022-10-23T19:41:47.911Z,9.98
2022-10-23T19:44:16.445Z,11.70
2022-10-23T19:46:44.770Z,10.57
